Time;durP1;ratioP1;P1;durP2;ratioP2;P2;SDS_P1;SDS_P2;PMS_P1;PMS_P2;Temp;Humidity;BMP_temperature;BMP_pressure;BME280_temperature;BME280_humidity;BME280_pressure;Samples;Min_cycle;Max_cycle;Signal;HPM_P1;HPM_P2
2022/08/23 00:00:41;;;;;;;6.93;4.35;;;;;;;17.90;89.81;96475.75;5058757;28;20210;-51
2022/08/23 00:03:08;;;;;;;4.60;4.15;;;;;;;17.87;88.26;96469.97;5059126;28;20211;-52
2022/08/23 00:05:35;;;;;;;7.70;4.63;;;;;;;17.90;88.62;96466.91;5066796;28;20207;-50
2022/08/23 00:08:02;;;;;;;4.57;3.85;;;;;;;17.95;86.93;96479.72;5066892;28;20241;-51
2022/08/23 00:10:28;;;;;;;4.65;4.25;;;;;;;17.89;88.49;96475.94;5066760;28;20231;-51
2022/08/23 00:12:56;;;;;;;4.68;4.05;;;;;;;17.80;89.88;96477.94;5073587;28;20222;-50
2022/08/23 00:15:23;;;;;;;4.32;4.03;;;;;;;17.84;89.04;96478.38;5077220;28;20195;-50
2022/08/23 00:17:50;;;;;;;4.57;4.20;;;;;;;17.74;90.09;96468.00;5078494;28;20246;-50
2022/08/23 00:20:19;;;;;;;4.32;3.97;;;;;;;17.70;91.92;96463.22;5079142;28;20196;-51
2022/08/23 00:22:46;;;;;;;4.82;4.22;;;;;;;17.80;89.64;96472.59;5077232;28;20203;-51
2022/08/23 00:25:14;;;;;;;4.97;4.05;;;;;;;17.76;89.17;96465.97;5076880;28;20195;-50
2022/08/23 00:27:41;;;;;;;4.55;4.15;;;;;;;17.68;90.27;96479.44;5077183;28;20209;-58
2022/08/23 00:30:11;;;;;;;4.68;4.10;;;;;;;17.60;91.92;96476.94;5078763;28;20183;-53
2022/08/23 00:32:39;;;;;;;4.32;4.00;;;;;;;17.53;93.00;96470.66;5078509;28;20183;-51
2022/08/23 00:35:07;;;;;;;5.80;4.68;;;;;;;17.52;92.17;96466.31;5067732;28;20204;-51
2022/08/23 00:37:35;;;;;;;6.28;4.55;;;;;;;17.57;91.56;96461.22;5070590;28;20227;-50
2022/08/23 00:40:02;;;;;;;6.35;4.30;;;;;;;17.56;91.16;96461.41;5057704;28;20199;-50
2022/08/23 00:48:22;;;;;;;4.38;4.03;;;;;;;17.44;91.00;96469.09;5054044;28;20242;-50
2022/08/23 00:50:52;;;;;;;4.65;3.90;;;;;;;17.45;90.80;96465.41;5057789;28;20203;-49
2022/08/23 00:53:21;;;;;;;4.30;4.00;;;;;;;17.40;93.01;96463.31;5057230;28;20206;-52
2022/08/23 00:55:50;;;;;;;4.18;3.90;;;;;;;17.26;93.53;96472.19;5058664;28;20242;-51
2022/08/23 00:58:19;;;;;;;5.27;4.30;;;;;;;17.26;93.69;96469.53;5057246;28;20284;-51
2022/08/23 01:00:48;;;;;;;7.47;4.53;;;;;;;17.22;95.34;96472.75;5057434;28;20211;-49
2022/08/23 01:03:16;;;;;;;4.80;4.20;;;;;;;17.16;94.87;96468.16;5056643;28;20541;-50
2022/08/23 01:05:46;;;;;;;5.43;4.15;;;;;;;17.10;95.23;96475.09;5056484;28;20290;-50
2022/08/23 01:08:13;;;;;;;4.63;4.22;;;;;;;17.19;93.58;96473.97;5056033;28;20243;-51
2022/08/23 01:10:42;;;;;;;3.55;3.33;;;;;;;17.15;95.33;96471.84;5055793;28;20650;-51
2022/08/23 01:13:13;;;;;;;4.53;3.88;;;;;;;17.14;94.45;96476.38;5056009;28;20199;-51
2022/08/23 01:15:44;;;;;;;4.07;3.78;;;;;;;17.07;95.93;96474.66;5055579;28;20286;-52
2022/08/23 01:18:14;;;;;;;4.03;3.72;;;;;;;17.03;95.81;96484.06;5056171;28;20239;-49
2022/08/23 01:20:44;;;;;;;4.00;3.70;;;;;;;17.13;94.02;96479.25;5055207;28;20257;-50
2022/08/23 01:23:28;;;;;;;5.03;4.60;;;;;;;17.06;95.13;96483.66;5056803;28;20586;-52
2022/08/23 01:25:57;;;;;;;4.80;4.30;;;;;;;16.99;95.72;96490.78;5055233;28;20672;-53
2022/08/23 01:28:23;;;;;;;4.60;4.20;;;;;;;16.93;96.94;96485.16;5055257;28;20204;-51
2022/08/23 01:30:50;;;;;;;4.40;4.00;;;;;;;16.95;96.81;96486.81;5055474;28;20203;-50
2022/08/23 01:33:18;;;;;;;4.25;3.95;;;;;;;16.97;96.59;96480.25;5055855;28;20599;-50
2022/08/23 01:35:48;;;;;;;5.57;4.43;;;;;;;16.95;97.55;96495.66;5055103;28;20211;-52
2022/08/23 01:38:14;;;;;;;4.82;4.10;;;;;;;16.96;97.28;96491.16;5055277;28;20335;-51
2022/08/23 01:40:43;;;;;;;4.60;4.05;;;;;;;16.95;96.66;96492.16;5055623;28;20244;-52
2022/08/23 01:43:13;;;;;;;4.88;4.35;;;;;;;16.93;95.60;96493.16;5055367;28;20215;-51
2022/08/23 01:45:40;;;;;;;4.53;4.22;;;;;;;16.97;95.19;96490.16;5053905;28;20524;-49
2022/08/23 01:48:06;;;;;;;4.25;3.95;;;;;;;16.96;94.39;96494.66;5054897;28;20318;-51
2022/08/23 01:50:33;;;;;;;6.72;4.20;;;;;;;16.93;94.27;96495.84;5055283;28;20230;-51
2022/08/23 01:53:01;;;;;;;4.47;4.07;;;;;;;16.84;96.53;96501.47;5054295;28;20294;-50
2022/08/23 01:55:28;;;;;;;4.53;4.15;;;;;;;16.87;97.48;96501.09;5055078;28;20245;-50
2022/08/23 01:57:58;;;;;;;4.50;4.10;;;;;;;16.82;97.79;96492.84;5054781;28;20255;-50
2022/08/23 02:00:27;;;;;;;5.88;4.30;;;;;;;16.78;98.77;96499.56;5054541;28;20255;-51
2022/08/23 02:02:54;;;;;;;4.22;3.83;;;;;;;16.76;99.57;96499.72;5055323;28;20214;-51
2022/08/23 02:05:21;;;;;;;4.50;4.00;;;;;;;16.86;97.75;96494.91;5054807;28;20249;-53
2022/08/23 02:07:48;;;;;;;4.73;4.23;;;;;;;16.88;97.34;96500.94;5055096;28;20207;-51
2022/08/23 02:10:15;;;;;;;4.73;4.23;;;;;;;16.81;100.00;96501.84;5054620;28;20235;-52
2022/08/23 02:12:42;;;;;;;4.78;4.45;;;;;;;16.84;100.00;96501.47;5054586;28;20578;-51
2022/08/23 02:15:11;;;;;;;4.38;4.05;;;;;;;16.85;99.87;96490.63;5054157;28;20285;-52
2022/08/23 02:17:37;;;;;;;4.70;3.45;;;;;;;16.90;98.83;96484.69;5054132;28;20305;-49
2022/08/23 02:20:06;;;;;;;4.77;3.77;;;;;;;16.86;99.97;96486.91;5054893;28;20342;-50
2022/08/23 02:22:32;;;;;;;4.85;3.92;;;;;;;16.81;100.00;96483.97;5054703;28;20203;-51
2022/08/23 02:24:59;;;;;;;5.10;3.90;;;;;;;16.84;99.01;96494.28;5054719;28;20203;-50
2022/08/23 02:27:26;;;;;;;3.85;3.55;;;;;;;16.81;99.80;96493.84;5054619;28;20195;-50
2022/08/23 02:29:53;;;;;;;4.00;3.70;;;;;;;16.76;100.00;96505.06;5054697;28;20195;-51
2022/08/23 02:32:21;;;;;;;4.20;3.90;;;;;;;16.72;100.00;96506.44;5054008;28;20249;-51
2022/08/23 02:34:48;;;;;;;4.68;4.28;;;;;;;16.74;100.00;96507.09;5055130;28;20257;-50
2022/08/23 02:37:15;;;;;;;4.13;3.75;;;;;;;16.67;100.00;96506.19;5053699;28;20259;-50
2022/08/23 02:39:43;;;;;;;3.90;3.67;;;;;;;16.63;100.00;96512.91;5041448;28;20286;-50
2022/08/23 02:42:10;;;;;;;3.90;3.57;;;;;;;16.56;100.00;96508.47;5054312;28;20237;-50
2022/08/23 02:44:37;;;;;;;4.00;3.70;;;;;;;16.50;100.00;96509.19;5054406;28;20203;-51
2022/08/23 02:47:06;;;;;;;4.20;3.80;;;;;;;16.62;100.00;96503.22;5054595;28;20203;-51
2022/08/23 02:49:35;;;;;;;4.43;3.83;;;;;;;16.51;100.00;96511.66;5057655;28;20330;-51
2022/08/23 02:52:01;;;;;;;4.30;3.90;;;;;;;16.46;100.00;96508.72;5058364;28;20257;-52
2022/08/23 02:54:28;;;;;;;5.53;4.00;;;;;;;16.38;100.00;96512.28;5058398;28;20282;-49
2022/08/23 02:56:55;;;;;;;5.90;4.13;;;;;;;16.30;100.00;96520.38;5057748;28;20294;-51
2022/08/23 02:59:21;;;;;;;5.63;4.30;;;;;;;16.34;100.00;96516.34;5057695;28;20318;-51
2022/08/23 03:01:48;;;;;;;4.70;4.30;;;;;;;16.39;100.00;96518.47;5057930;28;20237;-49
2022/08/23 03:04:15;;;;;;;6.93;4.03;;;;;;;16.32;100.00;96522.88;5058082;28;20203;-50
2022/08/23 03:06:43;;;;;;;4.67;4.27;;;;;;;16.29;100.00;96521.41;5057691;28;20624;-52
2022/08/23 03:09:10;;;;;;;4.00;3.70;;;;;;;16.28;100.00;96510.91;5058083;28;20286;-50
2022/08/23 03:11:37;;;;;;;4.23;3.83;;;;;;;16.19;100.00;96525.34;5057964;28;20286;-50
2022/08/23 03:14:04;;;;;;;4.50;4.10;;;;;;;16.27;100.00;96531.41;5058099;28;20206;-50
2022/08/23 03:16:30;;;;;;;4.40;4.10;;;;;;;16.22;100.00;96531.13;5057506;28;20576;-50
2022/08/23 03:18:57;;;;;;;5.07;4.10;;;;;;;16.23;100.00;96526.59;5058479;28;20223;-52
2022/08/23 03:21:24;;;;;;;4.50;4.20;;;;;;;16.16;100.00;96531.84;5057805;28;20685;-50
2022/08/23 03:23:52;;;;;;;5.43;4.27;;;;;;;16.11;100.00;96528.06;5058790;28;20230;-50
2022/08/23 03:26:19;;;;;;;5.03;4.30;;;;;;;16.12;100.00;96532.41;5058011;28;20214;-51
2022/08/23 03:28:47;;;;;;;4.20;3.90;;;;;;;16.13;100.00;96529.53;5058070;28;20227;-50
2022/08/23 03:31:14;;;;;;;5.27;4.17;;;;;;;16.03;100.00;96539.63;5056992;28;20624;-51
2022/08/23 03:33:41;;;;;;;4.70;4.30;;;;;;;16.02;100.00;96542.47;5057311;28;20226;-50
2022/08/23 03:36:10;;;;;;;7.93;4.47;;;;;;;15.97;100.00;96544.84;5058106;28;20235;-49
2022/08/23 03:38:38;;;;;;;4.83;4.30;;;;;;;15.94;100.00;96549.53;5057239;28;20223;-51
2022/08/23 03:41:07;;;;;;;4.63;4.20;;;;;;;16.05;100.00;96550.13;5057299;28;20269;-51
2022/08/23 03:43:34;;;;;;;4.67;4.27;;;;;;;15.96;100.00;96551.19;5049504;28;20252;-50
2022/08/23 03:46:01;;;;;;;4.47;4.10;;;;;;;15.88;100.00;96542.25;5057190;28;20230;-50
2022/08/23 03:48:28;;;;;;;7.73;4.60;;;;;;;15.82;100.00;96550.97;5056971;28;20684;-51
2022/08/23 03:50:55;;;;;;;5.37;4.10;;;;;;;15.81;100.00;96548.47;5057268;28;20203;-50
2022/08/23 03:53:22;;;;;;;5.80;4.30;;;;;;;15.92;100.00;96548.88;5056741;28;20297;-50
2022/08/23 03:55:50;;;;;;;4.33;3.87;;;;;;;15.81;100.00;96553.78;5056210;28;20208;-50
2022/08/23 03:58:20;;;;;;;5.27;4.53;;;;;;;15.81;100.00;96554.63;5056899;28;20227;-50
2022/08/23 04:00:47;;;;;;;5.03;4.60;;;;;;;15.82;100.00;96548.28;5058082;28;20207;-51
2022/08/23 04:03:13;;;;;;;4.90;4.50;;;;;;;15.82;100.00;96550.13;5056352;28;20616;-50
2022/08/23 04:05:40;;;;;;;6.17;4.90;;;;;;;15.80;100.00;96550.28;5057105;28;20238;-52
2022/08/23 04:08:10;;;;;;;4.47;4.13;;;;;;;15.79;100.00;96558.47;5057096;28;20199;-51
2022/08/23 04:10:37;;;;;;;4.03;3.83;;;;;;;15.78;100.00;96559.47;5056863;28;20199;-50
2022/08/23 04:13:05;;;;;;;4.73;4.33;;;;;;;15.84;100.00;96556.94;5056941;28;20222;-50
2022/08/23 04:15:33;;;;;;;5.43;4.93;;;;;;;15.86;100.00;96560.28;5057579;28;20199;-49
2022/08/23 04:18:00;;;;;;;4.90;4.40;;;;;;;15.82;100.00;96563.47;5060499;28;20235;-50
2022/08/23 04:20:27;;;;;;;5.43;4.30;;;;;;;15.78;100.00;96562.97;5056677;28;20231;-51
2022/08/23 04:22:54;;;;;;;4.50;4.20;;;;;;;15.85;100.00;96555.09;5057047;28;20206;-49
2022/08/23 04:25:21;;;;;;;4.83;4.40;;;;;;;15.78;100.00;96560.31;5056993;28;20844;-50
2022/08/23 04:27:48;;;;;;;5.80;5.20;;;;;;;15.70;100.00;96557.69;5052840;28;20208;-50
2022/08/23 04:30:15;;;;;;;4.80;4.40;;;;;;;15.68;100.00;96567.72;5047906;28;20282;-51
2022/08/23 04:32:43;;;;;;;4.97;4.30;;;;;;;15.65;100.00;96567.25;5056266;28;20227;-51
2022/08/23 04:35:10;;;;;;;4.80;4.50;;;;;;;15.62;100.00;96575.59;5056823;28;20304;-51
2022/08/23 04:37:37;;;;;;;5.80;4.40;;;;;;;15.62;100.00;96579.09;5055861;28;20214;-50
2022/08/23 04:42:48;;;;;;;5.10;4.70;;;;;;;15.61;100.00;96582.75;5056576;28;20642;-50
2022/08/23 04:45:15;;;;;;;4.73;4.33;;;;;;;15.59;100.00;96584.75;5055868;28;20647;-50
2022/08/23 04:47:44;;;;;;;4.67;4.37;;;;;;;15.53;100.00;96574.81;5042731;28;20223;-51
2022/08/23 04:50:11;;;;;;;4.20;3.90;;;;;;;15.56;100.00;96579.78;5055269;28;20210;-50
2022/08/23 04:52:37;;;;;;;6.37;4.50;;;;;;;15.56;100.00;96579.78;5056269;28;20203;-51
2022/08/23 04:55:05;;;;;;;6.03;4.60;;;;;;;15.52;100.00;96581.13;5055982;28;20651;-51
2022/08/23 04:57:32;;;;;;;5.57;4.03;;;;;;;15.54;100.00;96581.81;5055556;28;20535;-51
2022/08/23 04:59:59;;;;;;;6.30;5.80;;;;;;;15.60;100.00;96588.25;5055060;28;20615;-53
2022/08/23 05:02:26;;;;;;;5.27;4.77;;;;;;;15.66;100.00;96588.38;5055481;28;20211;-54
2022/08/23 05:04:54;;;;;;;4.77;4.37;;;;;;;15.72;100.00;96590.38;5055315;28;20211;-52
2022/08/23 05:07:21;;;;;;;4.70;4.40;;;;;;;15.70;100.00;96597.69;5054346;28;20230;-52
2022/08/23 05:09:47;;;;;;;8.33;4.53;;;;;;;15.76;100.00;96597.00;5053342;28;20214;-52
2022/08/23 05:12:14;;;;;;;5.07;4.67;;;;;;;15.80;100.00;96595.63;5053403;28;20299;-51
2022/08/23 05:14:41;;;;;;;4.93;4.53;;;;;;;15.84;100.00;96598.75;5055118;28;20206;-50
2022/08/23 05:17:08;;;;;;;4.73;4.30;;;;;;;15.90;100.00;96609.59;5060797;28;20230;-50
2022/08/23 05:19:34;;;;;;;5.17;4.73;;;;;;;15.93;100.00;96608.41;5055469;28;20223;-52
2022/08/23 05:22:02;;;;;;;5.10;4.63;;;;;;;15.98;100.00;96613.19;5055261;28;20578;-52
2022/08/23 05:24:29;;;;;;;5.07;4.50;;;;;;;16.06;100.00;96607.78;5072400;28;20203;-51
2022/08/23 05:26:56;;;;;;;5.27;4.60;;;;;;;16.09;100.00;96610.94;5073048;28;20547;-51
2022/08/23 05:29:22;;;;;;;5.03;4.57;;;;;;;16.14;100.00;96610.41;5058799;28;20644;-50
2022/08/23 05:31:49;;;;;;;5.60;5.10;;;;;;;16.21;100.00;96627.34;5058817;28;20230;-51
2022/08/23 05:34:15;;;;;;;5.70;4.40;;;;;;;16.27;100.00;96614.13;5058032;28;20235;-51
2022/08/23 05:36:42;;;;;;;6.13;5.00;;;;;;;16.39;100.00;96615.38;5056239;28;20230;-51
2022/08/23 05:39:10;;;;;;;5.10;4.60;;;;;;;16.51;100.00;96602.41;5055048;28;20265;-50
2022/08/23 05:41:39;;;;;;;5.77;5.20;;;;;;;16.61;100.00;96618.22;5055461;28;20607;-52
2022/08/23 05:44:05;;;;;;;6.30;5.10;;;;;;;16.80;100.00;96620.38;5054580;28;20218;-51
2022/08/23 05:46:32;;;;;;;5.23;4.73;;;;;;;16.99;100.00;96621.69;5054606;28;20584;-51
2022/08/23 05:49:00;;;;;;;6.20;5.60;;;;;;;17.27;100.00;96618.19;5054802;28;20630;-52
2022/08/23 05:51:29;;;;;;;5.97;5.33;;;;;;;17.55;100.00;96617.50;5054826;28;20214;-51
2022/08/23 05:53:58;;;;;;;6.28;5.78;;;;;;;17.97;100.00;96616.78;5054498;28;20234;-51
2022/08/23 05:56:27;;;;;;;6.50;5.90;;;;;;;18.60;96.33;96619.50;5054558;28;20278;-50
2022/08/23 05:58:56;;;;;;;6.88;5.38;;;;;;;19.37;89.51;96627.47;5056025;28;20314;-52
2022/08/23 06:01:25;;;;;;;5.68;5.28;;;;;;;20.14;85.90;96628.00;5064354;28;20234;-51
2022/08/23 06:03:52;;;;;;;6.80;6.10;;;;;;;20.90;81.27;96636.59;5057029;28;20293;-52
2022/08/23 06:06:19;;;;;;;5.82;5.05;;;;;;;21.26;79.11;96645.06;5061715;28;20207;-51
2022/08/23 06:08:47;;;;;;;8.05;5.47;;;;;;;21.78;73.30;96636.03;5067829;28;20218;-51
2022/08/23 06:11:17;;;;;;;7.68;5.45;;;;;;;21.97;73.49;96638.84;5055036;28;20203;-51
2022/08/23 06:13:48;;;;;;;5.88;5.40;;;;;;;22.14;74.42;96645.41;5054883;28;20218;-51
2022/08/23 06:16:16;;;;;;;6.75;5.63;;;;;;;21.85;72.63;96638.69;5060591;28;20635;-50
2022/08/23 06:18:43;;;;;;;5.85;5.15;;;;;;;22.11;72.72;96640.44;5054305;28;20254;-51
2022/08/23 06:21:12;;;;;;;5.78;5.28;;;;;;;22.02;72.35;96647.13;5054570;28;20207;-50
2022/08/23 06:23:40;;;;;;;6.63;5.53;;;;;;;22.16;72.19;96644.16;5054699;28;20242;-51
2022/08/23 06:26:10;;;;;;;7.03;6.05;;;;;;;22.00;73.97;96649.22;5054568;28;20590;-50
2022/08/23 06:28:37;;;;;;;6.32;5.72;;;;;;;22.16;72.00;96648.72;5054033;28;20601;-51
2022/08/23 06:31:05;;;;;;;8.10;6.30;;;;;;;22.42;71.28;96643.19;5054269;28;20229;-52
2022/08/23 06:33:32;;;;;;;7.18;5.95;;;;;;;22.37;70.09;96651.06;5054859;28;20211;-50
2022/08/23 06:36:03;;;;;;;6.93;5.60;;;;;;;22.37;70.71;96650.25;5054279;28;20640;-50
2022/08/23 06:38:30;;;;;;;6.53;5.93;;;;;;;22.66;70.61;96644.25;5054152;28;20223;-51
2022/08/23 06:41:00;;;;;;;9.77;6.13;;;;;;;22.66;70.74;96655.88;5054766;28;20231;-52
2022/08/23 06:43:28;;;;;;;6.60;5.60;;;;;;;22.70;70.67;96654.44;5054762;28;20716;-51
2022/08/23 06:45:55;;;;;;;8.30;5.93;;;;;;;23.00;69.34;96653.75;5054845;28;20206;-52
2022/08/23 06:48:23;;;;;;;5.95;5.40;;;;;;;23.11;66.07;96653.03;5054250;28;20318;-50
2022/08/23 06:50:49;;;;;;;5.85;5.35;;;;;;;23.36;68.00;96661.13;5054453;28;20269;-52
2022/08/23 06:53:16;;;;;;;6.40;5.47;;;;;;;23.61;66.84;96657.34;5048163;28;20290;-52
2022/08/23 06:55:43;;;;;;;5.90;5.35;;;;;;;23.58;67.63;96659.69;5053810;28;20203;-50
2022/08/23 06:58:09;;;;;;;5.68;5.28;;;;;;;23.61;64.75;96665.47;5054370;28;20210;-51
2022/08/23 07:00:36;;;;;;;7.68;5.65;;;;;;;23.41;65.06;96669.38;5054077;28;20324;-50
2022/08/23 07:03:03;;;;;;;7.65;5.43;;;;;;;23.62;65.56;96677.09;5054598;28;20210;-51
2022/08/23 07:05:31;;;;;;;7.35;5.53;;;;;;;23.67;65.23;96679.94;5054612;28;20203;-51
2022/08/23 07:07:58;;;;;;;5.43;4.93;;;;;;;23.90;65.34;96684.66;5054175;28;20238;-49
2022/08/23 07:10:26;;;;;;;5.15;4.72;;;;;;;23.94;65.01;96681.31;5050799;28;20257;-51
2022/08/23 07:12:53;;;;;;;5.65;5.15;;;;;;;24.21;61.88;96681.81;5054326;28;20213;-51
2022/08/23 07:15:19;;;;;;;5.97;5.38;;;;;;;24.18;63.85;96680.41;5047286;28;20224;-50
2022/08/23 07:17:46;;;;;;;7.32;5.60;;;;;;;24.17;63.80;96680.63;5048428;28;20242;-50
2022/08/23 07:20:13;;;;;;;6.18;5.57;;;;;;;24.13;62.15;96679.41;5054433;28;20527;-51
2022/08/23 07:22:43;;;;;;;5.97;5.47;;;;;;;24.15;61.74;96683.56;5054214;28;20261;-51
2022/08/23 07:25:09;;;;;;;5.90;5.35;;;;;;;24.06;61.81;96684.03;5054418;28;20645;-50
2022/08/23 07:27:36;;;;;;;6.10;5.50;;;;;;;24.18;61.00;96685.81;5054013;28;20314;-50
2022/08/23 07:30:04;;;;;;;6.10;5.50;;;;;;;24.34;62.31;96676.22;5041501;28;20239;-51
2022/08/23 07:32:31;;;;;;;5.85;5.25;;;;;;;24.18;60.37;96682.28;5049208;28;20239;-51
2022/08/23 07:34:58;;;;;;;5.15;4.70;;;;;;;24.48;62.39;96683.09;5057122;28;20758;-52
2022/08/23 07:37:26;;;;;;;5.07;4.68;;;;;;;24.63;60.84;96682.69;5057672;28;20578;-51
2022/08/23 07:39:55;;;;;;;5.55;4.78;;;;;;;24.72;60.81;96686.75;5057832;28;20231;-50
2022/08/23 07:42:22;;;;;;;5.30;4.90;;;;;;;24.75;56.77;96689.81;5057928;28;20221;-51
2022/08/23 07:44:49;;;;;;;5.97;5.15;;;;;;;24.87;55.83;96686.34;5057655;28;20235;-50
2022/08/23 07:47:15;;;;;;;4.85;4.45;;;;;;;24.96;55.64;96684.94;5057959;28;20214;-51
2022/08/23 07:49:42;;;;;;;4.63;4.22;;;;;;;24.85;55.51;96686.56;5058079;28;20235;-51
2022/08/23 07:52:09;;;;;;;7.55;4.85;;;;;;;24.70;56.17;96681.53;5058379;28;20250;-51
2022/08/23 07:54:36;;;;;;;4.63;4.22;;;;;;;24.99;58.01;96684.47;5060516;28;20265;-52
2022/08/23 07:57:04;;;;;;;9.98;5.28;;;;;;;24.97;54.96;96692.00;5060652;28;20245;-51
2022/08/23 07:59:31;;;;;;;4.35;3.95;;;;;;;24.99;56.80;96689.88;5060472;28;20266;-53
2022/08/23 08:01:58;;;;;;;4.50;4.15;;;;;;;25.27;55.85;96688.16;5060035;28;20663;-51
2022/08/23 08:04:25;;;;;;;4.60;4.20;;;;;;;25.41;54.63;96698.75;5059337;28;20230;-50
2022/08/23 08:06:51;;;;;;;6.63;4.40;;;;;;;25.77;57.33;96703.16;5059257;28;20211;-51
2022/08/23 08:09:19;;;;;;;4.88;4.38;;;;;;;25.80;54.88;96702.66;5060837;28;20222;-51
2022/08/23 08:11:47;;;;;;;5.10;4.60;;;;;;;25.69;55.53;96701.63;5062238;28;20203;-52
2022/08/23 08:14:16;;;;;;;6.57;4.57;;;;;;;25.48;54.08;96703.00;5059390;28;20223;-51
2022/08/23 08:16:45;;;;;;;4.93;4.40;;;;;;;25.59;53.10;96706.81;5063728;28;20203;-52
2022/08/23 08:19:14;;;;;;;4.90;4.20;;;;;;;25.38;54.13;96708.19;5057965;28;20254;-52
2022/08/23 08:21:41;;;;;;;6.05;4.25;;;;;;;25.48;54.63;96710.28;5052912;28;20212;-51
2022/08/23 08:24:09;;;;;;;4.30;3.90;;;;;;;25.57;54.89;96712.47;5052116;28;20241;-53
2022/08/23 08:26:35;;;;;;;5.82;4.25;;;;;;;25.67;53.86;96710.00;5057357;28;20687;-52
2022/08/23 08:29:02;;;;;;;4.95;4.50;;;;;;;25.80;52.55;96713.50;5056873;28;20227;-52
2022/08/23 08:31:30;;;;;;;5.38;4.25;;;;;;;25.88;54.12;96715.84;5057508;28;20663;-51
2022/08/23 08:33:57;;;;;;;5.55;4.28;;;;;;;26.06;53.06;96715.72;5057721;28;20238;-51
2022/08/23 08:36:34;;;;;;;5.28;4.78;;;;;;;25.79;53.11;96723.50;5056873;28;20222;-51
2022/08/23 08:39:00;;;;;;;7.63;4.07;;;;;;;25.96;54.14;96719.03;5057348;28;20286;-52
2022/08/23 08:41:36;;;;;;;6.93;4.43;;;;;;;25.80;51.81;96718.91;5057143;28;20230;-52
2022/08/23 08:44:09;;;;;;;8.98;4.20;;;;;;;26.12;54.24;96712.03;5077288;28;20191;-52
2022/08/23 08:46:43;;;;;;;3.92;3.58;;;;;;;26.19;50.55;96712.75;5074449;28;20207;-52
2022/08/23 08:49:13;;;;;;;4.32;3.65;;;;;;;26.37;49.57;96711.78;5060086;28;20258;-51
2022/08/23 08:51:46;;;;;;;4.20;3.80;;;;;;;26.56;49.71;96713.25;5069564;28;20198;-51
2022/08/23 08:54:15;;;;;;;4.75;3.63;;;;;;;26.69;49.11;96718.38;5058616;28;20199;-51
2022/08/23 08:56:42;;;;;;;4.45;3.75;;;;;;;26.87;51.00;96715.50;5068804;28;20536;-52
2022/08/23 08:59:14;;;;;;;4.32;3.80;;;;;;;26.97;48.61;96715.69;5077181;28;20187;-52
2022/08/23 09:01:42;;;;;;;4.18;3.75;;;;;;;27.07;47.30;96712.31;5075934;28;20195;-53
2022/08/23 09:04:10;;;;;;;5.00;3.55;;;;;;;27.21;48.80;96713.63;5069249;28;20202;-55
2022/08/23 09:06:47;;;;;;;3.95;3.65;;;;;;;27.09;48.40;96708.31;5058092;28;20611;-51
2022/08/23 09:09:24;;;;;;;4.10;3.70;;;;;;;27.35;48.20;96712.25;5056140;28;20206;-52
2022/08/23 09:12:00;;;;;;;6.22;3.97;;;;;;;27.37;46.48;96712.84;5056276;28;20194;-50
2022/08/23 09:14:44;;;;;;;3.88;3.53;;;;;;;27.57;47.64;96715.06;5055465;28;20511;-51
2022/08/23 09:17:21;;;;;;;4.85;4.20;;;;;;;27.76;47.59;96712.91;5055820;28;20278;-51
2022/08/23 09:19:50;;;;;;;4.75;4.35;;;;;;;27.80;46.03;96714.06;5056143;28;20214;-52
2022/08/23 09:22:23;;;;;;;5.80;3.75;;;;;;;27.93;47.25;96710.97;5056063;28;20207;-52
2022/08/23 09:24:49;;;;;;;5.40;4.00;;;;;;;28.15;45.07;96709.97;5055626;28;20198;-51
2022/08/23 09:27:16;;;;;;;5.03;3.78;;;;;;;28.15;47.06;96707.25;5055674;28;20242;-51
2022/08/23 09:29:52;;;;;;;3.97;3.38;;;;;;;28.05;48.07;96706.25;5055764;28;20265;-51
2022/08/23 09:32:29;;;;;;;3.53;3.22;;;;;;;28.01;43.67;96699.69;5054896;28;20194;-51
2022/08/23 09:35:07;;;;;;;3.20;3.00;;;;;;;28.23;46.48;96702.44;5055804;28;20278;-51
2022/08/23 09:37:47;;;;;;;5.63;3.20;;;;;;;28.18;43.47;96704.03;5054983;28;20615;-52
2022/08/23 09:40:17;;;;;;;5.47;3.50;;;;;;;27.98;45.78;96695.56;5055598;28;20649;-53
2022/08/23 09:42:43;;;;;;;3.45;3.08;;;;;;;28.11;43.70;96697.13;5055418;28;20209;-51
2022/08/23 09:45:26;;;;;;;3.50;3.03;;;;;;;28.39;44.34;96705.09;5055554;28;20231;-53
2022/08/23 09:47:54;;;;;;;3.63;3.20;;;;;;;28.07;43.13;96704.97;5043135;28;20266;-51
2022/08/23 09:50:25;;;;;;;4.10;2.90;;;;;;;28.23;43.98;96702.44;5055176;28;20230;-51
2022/08/23 09:52:56;;;;;;;5.03;3.33;;;;;;;28.39;41.11;96696.94;5055086;28;20360;-53
2022/08/23 09:55:30;;;;;;;4.03;3.00;;;;;;;28.16;39.44;96697.19;5055223;28;20207;-52
2022/08/23 09:57:58;;;;;;;4.13;2.92;;;;;;;28.43;40.13;96698.06;5054504;28;20196;-52
2022/08/23 10:00:27;;;;;;;3.30;3.00;;;;;;;28.70;39.19;96700.03;5055103;28;20218;-51
2022/08/23 10:03:18;;;;;;;2.90;2.50;;;;;;;28.78;38.79;96694.94;5055128;28;20260;-52
2022/08/23 10:05:50;;;;;;;4.00;2.83;;;;;;;28.55;38.64;96695.22;5043865;28;20230;-51
2022/08/23 10:08:23;;;;;;;4.93;3.00;;;;;;;28.61;39.29;96689.56;5054379;28;20246;-51
2022/08/23 10:10:51;;;;;;;3.05;2.80;;;;;;;28.78;38.85;96688.69;5055104;28;20278;-53
2022/08/23 10:13:19;;;;;;;2.65;2.45;;;;;;;28.85;38.65;96689.28;5055260;28;20257;-51
2022/08/23 10:15:53;;;;;;;5.00;2.47;;;;;;;29.14;38.55;96693.38;5057584;28;20206;-54
2022/08/23 10:18:30;;;;;;;2.53;2.25;;;;;;;29.03;34.82;96687.03;5056000;28;20205;-51
2022/08/23 10:21:03;;;;;;;2.60;2.40;;;;;;;29.28;36.52;96681.00;5054586;28;20730;-52
2022/08/23 10:23:40;;;;;;;5.80;2.90;;;;;;;29.29;37.54;96682.66;5042819;28;20231;-52
2022/08/23 10:26:11;;;;;;;3.08;2.30;;;;;;;29.39;35.31;96690.91;5054887;28;20287;-53
2022/08/23 10:31:35;;;;;;;2.50;2.30;;;;;;;29.46;36.12;96679.78;5041675;28;20280;-51
2022/08/23 10:34:19;;;;;;;2.45;2.22;;;;;;;29.68;35.29;96683.22;5054780;28;20563;-51
2022/08/23 10:36:51;;;;;;;2.95;2.47;;;;;;;29.85;37.60;96688.53;5054448;28;20213;-52
2022/08/23 10:39:23;;;;;;;2.53;2.30;;;;;;;29.83;35.46;96685.22;5054979;28;20236;-50
2022/08/23 10:41:59;;;;;;;2.05;1.95;;;;;;;29.85;32.62;96677.63;5054423;28;20593;-51
2022/08/23 10:44:34;;;;;;;2.65;2.30;;;;;;;29.61;33.24;96674.44;5054459;28;20282;-52
2022/08/23 10:47:25;;;;;;;2.65;2.35;;;;;;;29.74;32.64;96670.44;5054352;28;20198;-53
2022/08/23 10:49:54;;;;;;;2.40;2.20;;;;;;;29.90;34.60;96666.75;5052456;28;20643;-52
2022/08/23 10:52:24;;;;;;;2.25;2.05;;;;;;;29.85;33.21;96662.09;5053955;28;20211;-53
2022/08/23 10:54:59;;;;;;;2.63;1.80;;;;;;;29.59;33.12;96654.78;5054561;28;20226;-51
2022/08/23 10:57:31;;;;;;;3.10;2.17;;;;;;;29.94;32.55;96654.19;5054358;28;20610;-51
2022/08/23 10:59:58;;;;;;;2.10;1.90;;;;;;;30.04;31.54;96654.28;5054523;28;20262;-50
2022/08/23 11:02:32;;;;;;;2.03;1.90;;;;;;;30.30;31.86;96657.91;5053965;28;20543;-52
2022/08/23 11:05:04;;;;;;;2.63;2.10;;;;;;;30.33;31.34;96643.72;5054459;28;20623;-52
2022/08/23 11:07:34;;;;;;;2.25;2.05;;;;;;;30.17;29.91;96651.06;5054367;28;20199;-51
2022/08/23 11:10:14;;;;;;;2.00;1.70;;;;;;;29.86;27.56;96650.09;5057942;28;20199;-51
2022/08/23 11:12:53;;;;;;;1.58;1.48;;;;;;;30.21;28.65;96646.72;5058436;28;20230;-52
2022/08/23 11:15:26;;;;;;;1.60;1.50;;;;;;;30.27;27.12;96634.72;5054499;28;20230;-51
2022/08/23 11:17:57;;;;;;;2.30;1.40;;;;;;;30.26;27.36;96633.06;5052954;28;20252;-53
2022/08/23 11:20:56;;;;;;;1.30;1.30;;;;;;;30.22;27.24;96631.16;5057149;28;20259;-53
2022/08/23 11:23:57;;;;;;;1.60;1.50;;;;;;;30.41;27.90;96630.44;5044674;28;20620;-50
2022/08/23 11:27:06;;;;;;;2.70;1.50;;;;;;;30.50;30.48;96630.75;5057197;28;20237;-50
2022/08/23 11:29:35;;;;;;;4.65;1.85;;;;;;;30.40;27.59;96628.75;5057988;28;20266;-51
2022/08/23 11:32:11;;;;;;;2.03;1.70;;;;;;;29.95;26.41;96634.03;5057896;28;20225;-51
2022/08/23 11:34:43;;;;;;;2.97;1.80;;;;;;;30.43;28.75;96627.44;5057966;28;20234;-50
2022/08/23 11:37:46;;;;;;;1.60;1.50;;;;;;;30.48;29.28;96631.00;5056927;28;20231;-50
2022/08/23 11:40:12;;;;;;;1.95;1.40;;;;;;;30.26;27.10;96626.78;5049394;28;20265;-51
2022/08/23 11:42:49;;;;;;;1.67;1.52;;;;;;;30.21;26.56;96624.88;5057370;28;20198;-50
2022/08/23 11:45:29;;;;;;;1.63;1.52;;;;;;;30.40;26.97;96627.91;5057400;28;20716;-53
2022/08/23 11:48:08;;;;;;;2.60;1.35;;;;;;;30.55;27.75;96631.56;5045047;28;20679;-53
2022/08/23 11:50:44;;;;;;;2.30;1.75;;;;;;;30.42;27.59;96617.59;5057117;28;20556;-51
2022/08/23 11:53:38;;;;;;;2.58;1.50;;;;;;;30.09;25.85;96618.81;5058959;28;20230;-52